sensor_id;sensor_type;location;lat;lon;timestamp;temperature;humidity
32217;DHT22;67098;51.140;4.088;2023-03-01T00:01:29;4.00;65.80
32217;DHT22;67098;51.140;4.088;2023-03-01T00:03:56;3.90;66.00
32217;DHT22;67098;51.140;4.088;2023-03-01T00:06:22;4.00;66.10
32217;DHT22;67098;51.140;4.088;2023-03-01T00:08:48;4.00;66.30
32217;DHT22;67098;51.140;4.088;2023-03-01T00:11:30;4.00;66.20
32217;DHT22;67098;51.140;4.088;2023-03-01T00:13:58;3.90;66.30
32217;DHT22;67098;51.140;4.088;2023-03-01T00:16:33;3.90;66.30
32217;DHT22;67098;51.140;4.088;2023-03-01T00:18:59;3.90;66.40
32217;DHT22;67098;51.140;4.088;2023-03-01T00:21:25;3.80;66.60
32217;DHT22;67098;51.140;4.088;2023-03-01T00:23:52;3.80;66.80
32217;DHT22;67098;51.140;4.088;2023-03-01T00:26:19;3.80;66.70
32217;DHT22;67098;51.140;4.088;2023-03-01T00:28:45;3.80;66.50
32217;DHT22;67098;51.140;4.088;2023-03-01T00:31:16;3.70;66.50
32217;DHT22;67098;51.140;4.088;2023-03-01T00:33:43;3.70;66.70
32217;DHT22;67098;51.140;4.088;2023-03-01T00:36:10;3.70;66.60
32217;DHT22;67098;51.140;4.088;2023-03-01T00:38:38;3.70;66.70
32217;DHT22;67098;51.140;4.088;2023-03-01T00:41:09;3.70;67.00
32217;DHT22;67098;51.140;4.088;2023-03-01T00:43:34;3.70;67.00
32217;DHT22;67098;51.140;4.088;2023-03-01T00:46:09;3.60;67.00
32217;DHT22;67098;51.140;4.088;2023-03-01T00:48:35;3.50;67.30
32217;DHT22;67098;51.140;4.088;2023-03-01T00:51:28;3.50;67.70
32217;DHT22;67098;51.140;4.088;2023-03-01T00:53:56;3.50;67.70
32217;DHT22;67098;51.140;4.088;2023-03-01T00:56:22;3.50;68.40
32217;DHT22;67098;51.140;4.088;2023-03-01T00:58:48;3.50;67.90
32217;DHT22;67098;51.140;4.088;2023-03-01T01:01:25;3.40;68.00
32217;DHT22;67098;51.140;4.088;2023-03-01T01:04:02;3.40;68.00
32217;DHT22;67098;51.140;4.088;2023-03-01T01:06:31;3.30;68.00
32217;DHT22;67098;51.140;4.088;2023-03-01T01:08:58;3.20;69.00
32217;DHT22;67098;51.140;4.088;2023-03-01T01:11:25;3.30;68.60
32217;DHT22;67098;51.140;4.088;2023-03-01T01:13:51;3.30;68.70
32217;DHT22;67098;51.140;4.088;2023-03-01T01:16:18;3.30;68.70
32217;DHT22;67098;51.140;4.088;2023-03-01T01:18:44;3.30;68.70
32217;DHT22;67098;51.140;4.088;2023-03-01T01:21:13;3.30;68.50
32217;DHT22;67098;51.140;4.088;2023-03-01T01:23:40;3.20;68.70
32217;DHT22;67098;51.140;4.088;2023-03-01T01:26:13;3.30;68.90
32217;DHT22;67098;51.140;4.088;2023-03-01T01:28:39;3.20;69.10
32217;DHT22;67098;51.140;4.088;2023-03-01T01:31:05;3.20;69.20
32217;DHT22;67098;51.140;4.088;2023-03-01T01:33:31;3.20;70.00
32217;DHT22;67098;51.140;4.088;2023-03-01T01:35:57;3.30;69.80
32217;DHT22;67098;51.140;4.088;2023-03-01T01:38:23;3.20;70.10
32217;DHT22;67098;51.140;4.088;2023-03-01T01:40:50;3.20;70.50
32217;DHT22;67098;51.140;4.088;2023-03-01T01:43:25;3.20;70.10
32217;DHT22;67098;51.140;4.088;2023-03-01T01:45:52;3.20;70.30
32217;DHT22;67098;51.140;4.088;2023-03-01T01:48:23;3.10;70.60
32217;DHT22;67098;51.140;4.088;2023-03-01T01:50:55;3.10;71.00
32217;DHT22;67098;51.140;4.088;2023-03-01T01:53:22;3.10;70.50
32217;DHT22;67098;51.140;4.088;2023-03-01T01:55:54;3.10;70.00
32217;DHT22;67098;51.140;4.088;2023-03-01T01:58:24;3.10;70.20
32217;DHT22;67098;51.140;4.088;2023-03-01T02:00:51;3.00;70.20
32217;DHT22;67098;51.140;4.088;2023-03-01T02:03:23;3.00;70.30
32217;DHT22;67098;51.140;4.088;2023-03-01T02:06:03;2.90;70.40
32217;DHT22;67098;51.140;4.088;2023-03-01T02:08:32;2.90;70.70
32217;DHT22;67098;51.140;4.088;2023-03-01T02:11:00;2.90;70.80
32217;DHT22;67098;51.140;4.088;2023-03-01T02:13:27;2.90;70.40
32217;DHT22;67098;51.140;4.088;2023-03-01T02:15:53;2.80;70.50
32217;DHT22;67098;51.140;4.088;2023-03-01T02:18:21;2.80;70.70
32217;DHT22;67098;51.140;4.088;2023-03-01T02:23:26;2.80;70.50
32217;DHT22;67098;51.140;4.088;2023-03-01T02:26:15;2.70;70.40
32217;DHT22;67098;51.140;4.088;2023-03-01T02:28:44;2.70;70.40
32217;DHT22;67098;51.140;4.088;2023-03-01T02:31:14;2.70;70.30
32217;DHT22;67098;51.140;4.088;2023-03-01T02:33:59;2.70;70.50
32217;DHT22;67098;51.140;4.088;2023-03-01T02:36:30;2.70;70.70
32217;DHT22;67098;51.140;4.088;2023-03-01T02:38:59;2.70;70.80
32217;DHT22;67098;51.140;4.088;2023-03-01T02:41:26;2.70;70.80
32217;DHT22;67098;51.140;4.088;2023-03-01T02:43:53;2.70;70.90
32217;DHT22;67098;51.140;4.088;2023-03-01T02:46:21;2.60;71.30
32217;DHT22;67098;51.140;4.088;2023-03-01T02:48:52;2.60;71.80
32217;DHT22;67098;51.140;4.088;2023-03-01T02:56:25;2.60;72.10
32217;DHT22;67098;51.140;4.088;2023-03-01T02:58:51;2.60;72.20
32217;DHT22;67098;51.140;4.088;2023-03-01T03:01:18;2.60;72.60
32217;DHT22;67098;51.140;4.088;2023-03-01T03:03:44;2.60;72.90
32217;DHT22;67098;51.140;4.088;2023-03-01T03:06:10;2.60;73.10
32217;DHT22;67098;51.140;4.088;2023-03-01T03:08:36;2.60;73.60
32217;DHT22;67098;51.140;4.088;2023-03-01T03:11:02;2.60;73.90
32217;DHT22;67098;51.140;4.088;2023-03-01T03:13:28;2.60;74.20
32217;DHT22;67098;51.140;4.088;2023-03-01T03:15:56;2.50;74.70
32217;DHT22;67098;51.140;4.088;2023-03-01T03:18:23;2.60;75.30
32217;DHT22;67098;51.140;4.088;2023-03-01T03:20:52;2.60;76.60
32217;DHT22;67098;51.140;4.088;2023-03-01T03:23:22;2.60;77.10
32217;DHT22;67098;51.140;4.088;2023-03-01T03:25:49;2.50;77.60
32217;DHT22;67098;51.140;4.088;2023-03-01T03:28:15;2.60;78.70
32217;DHT22;67098;51.140;4.088;2023-03-01T03:30:41;2.50;79.10
32217;DHT22;67098;51.140;4.088;2023-03-01T03:33:08;2.50;80.00
32217;DHT22;67098;51.140;4.088;2023-03-01T03:35:41;2.50;79.90
32217;DHT22;67098;51.140;4.088;2023-03-01T03:38:09;2.50;80.80
32217;DHT22;67098;51.140;4.088;2023-03-01T03:40:49;2.50;80.90
32217;DHT22;67098;51.140;4.088;2023-03-01T03:43:21;2.50;81.10
32217;DHT22;67098;51.140;4.088;2023-03-01T03:45:49;2.40;81.60
32217;DHT22;67098;51.140;4.088;2023-03-01T03:48:15;2.40;81.90
32217;DHT22;67098;51.140;4.088;2023-03-01T03:50:41;2.40;82.20
32217;DHT22;67098;51.140;4.088;2023-03-01T03:53:12;2.40;82.30
32217;DHT22;67098;51.140;4.088;2023-03-01T03:55:38;2.40;82.50
32217;DHT22;67098;51.140;4.088;2023-03-01T03:58:08;2.30;82.80
32217;DHT22;67098;51.140;4.088;2023-03-01T04:00:40;2.30;83.30
32217;DHT22;67098;51.140;4.088;2023-03-01T04:03:07;2.30;83.10
32217;DHT22;67098;51.140;4.088;2023-03-01T04:05:33;2.30;83.30
32217;DHT22;67098;51.140;4.088;2023-03-01T04:07:59;2.30;83.00
32217;DHT22;67098;51.140;4.088;2023-03-01T04:10:34;2.20;82.90
32217;DHT22;67098;51.140;4.088;2023-03-01T04:13:01;2.30;83.10
32217;DHT22;67098;51.140;4.088;2023-03-01T04:15:27;2.30;82.70
32217;DHT22;67098;51.140;4.088;2023-03-01T04:17:53;2.30;82.50
32217;DHT22;67098;51.140;4.088;2023-03-01T04:20:24;2.40;82.20
32217;DHT22;67098;51.140;4.088;2023-03-01T04:25:23;2.40;81.70
32217;DHT22;67098;51.140;4.088;2023-03-01T04:27:49;2.50;81.30
32217;DHT22;67098;51.140;4.088;2023-03-01T04:30:15;2.40;81.20
32217;DHT22;67098;51.140;4.088;2023-03-01T04:32:41;2.40;81.30
32217;DHT22;67098;51.140;4.088;2023-03-01T04:35:06;2.50;81.00
32217;DHT22;67098;51.140;4.088;2023-03-01T04:37:32;2.50;81.00
32217;DHT22;67098;51.140;4.088;2023-03-01T04:39:58;2.50;80.50
32217;DHT22;67098;51.140;4.088;2023-03-01T04:42:23;2.40;80.30
32217;DHT22;67098;51.140;4.088;2023-03-01T04:44:49;2.40;80.40
32217;DHT22;67098;51.140;4.088;2023-03-01T04:47:16;2.40;80.10
32217;DHT22;67098;51.140;4.088;2023-03-01T04:49:42;2.30;81.40
32217;DHT22;67098;51.140;4.088;2023-03-01T04:52:08;2.30;81.10
32217;DHT22;67098;51.140;4.088;2023-03-01T04:54:35;2.30;81.10
32217;DHT22;67098;51.140;4.088;2023-03-01T04:57:02;2.30;81.10
32217;DHT22;67098;51.140;4.088;2023-03-01T04:59:28;2.30;80.80
32217;DHT22;67098;51.140;4.088;2023-03-01T05:01:55;2.30;80.80
32217;DHT22;67098;51.140;4.088;2023-03-01T05:04:24;2.30;80.50
32217;DHT22;67098;51.140;4.088;2023-03-01T05:06:50;2.30;80.50
32217;DHT22;67098;51.140;4.088;2023-03-01T05:09:16;2.40;80.50
32217;DHT22;67098;51.140;4.088;2023-03-01T05:11:42;2.30;80.10
32217;DHT22;67098;51.140;4.088;2023-03-01T05:14:09;2.30;80.20
32217;DHT22;67098;51.140;4.088;2023-03-01T05:16:35;2.30;79.90
32217;DHT22;67098;51.140;4.088;2023-03-01T05:19:02;2.40;79.90
32217;DHT22;67098;51.140;4.088;2023-03-01T05:21:39;2.30;79.80
32217;DHT22;67098;51.140;4.088;2023-03-01T05:24:25;2.20;79.40
32217;DHT22;67098;51.140;4.088;2023-03-01T05:26:52;2.10;79.20
32217;DHT22;67098;51.140;4.088;2023-03-01T05:29:19;2.10;79.00
32217;DHT22;67098;51.140;4.088;2023-03-01T05:31:54;2.20;78.40
32217;DHT22;67098;51.140;4.088;2023-03-01T05:34:34;2.20;78.00
32217;DHT22;67098;51.140;4.088;2023-03-01T05:37:02;2.20;77.70
32217;DHT22;67098;51.140;4.088;2023-03-01T05:39:29;2.10;78.30
32217;DHT22;67098;51.140;4.088;2023-03-01T05:41:59;2.10;77.70
32217;DHT22;67098;51.140;4.088;2023-03-01T05:44:27;2.10;77.60
32217;DHT22;67098;51.140;4.088;2023-03-01T05:46:52;2.00;77.50
32217;DHT22;67098;51.140;4.088;2023-03-01T05:49:18;2.00;77.30
32217;DHT22;67098;51.140;4.088;2023-03-01T05:51:48;2.00;77.10
32217;DHT22;67098;51.140;4.088;2023-03-01T05:54:14;2.00;77.10
32217;DHT22;67098;51.140;4.088;2023-03-01T05:56:40;1.90;77.00
32217;DHT22;67098;51.140;4.088;2023-03-01T05:59:05;1.90;76.90
32217;DHT22;67098;51.140;4.088;2023-03-01T06:01:32;1.90;77.00
32217;DHT22;67098;51.140;4.088;2023-03-01T06:03:58;1.80;76.90
32217;DHT22;67098;51.140;4.088;2023-03-01T06:06:24;1.80;77.00
32217;DHT22;67098;51.140;4.088;2023-03-01T06:08:51;1.80;76.90
32217;DHT22;67098;51.140;4.088;2023-03-01T06:11:16;1.70;76.90
32217;DHT22;67098;51.140;4.088;2023-03-01T06:13:43;1.70;76.80
32217;DHT22;67098;51.140;4.088;2023-03-01T06:16:09;1.70;76.90
32217;DHT22;67098;51.140;4.088;2023-03-01T06:18:36;1.70;76.70
32217;DHT22;67098;51.140;4.088;2023-03-01T06:21:02;1.70;76.60
32217;DHT22;67098;51.140;4.088;2023-03-01T06:23:27;1.60;76.60
32217;DHT22;67098;51.140;4.088;2023-03-01T06:25:53;1.50;76.70
32217;DHT22;67098;51.140;4.088;2023-03-01T06:28:19;1.50;76.60
32217;DHT22;67098;51.140;4.088;2023-03-01T06:30:44;1.50;76.40
32217;DHT22;67098;51.140;4.088;2023-03-01T06:33:10;1.60;76.10
32217;DHT22;67098;51.140;4.088;2023-03-01T06:35:36;1.60;76.30
32217;DHT22;67098;51.140;4.088;2023-03-01T06:38:02;1.50;76.20
32217;DHT22;67098;51.140;4.088;2023-03-01T06:40:29;1.60;75.90
32217;DHT22;67098;51.140;4.088;2023-03-01T06:42:57;1.50;75.80
32217;DHT22;67098;51.140;4.088;2023-03-01T06:45:23;1.60;75.90
32217;DHT22;67098;51.140;4.088;2023-03-01T06:47:50;1.50;76.00
32217;DHT22;67098;51.140;4.088;2023-03-01T06:50:17;1.60;76.30
32217;DHT22;67098;51.140;4.088;2023-03-01T06:52:43;1.50;76.60
32217;DHT22;67098;51.140;4.088;2023-03-01T06:55:10;1.50;77.00
32217;DHT22;67098;51.140;4.088;2023-03-01T06:57:36;1.60;76.80
32217;DHT22;67098;51.140;4.088;2023-03-01T07:00:04;1.60;77.20
32217;DHT22;67098;51.140;4.088;2023-03-01T07:02:29;1.60;77.40
32217;DHT22;67098;51.140;4.088;2023-03-01T07:04:55;1.70;77.50
32217;DHT22;67098;51.140;4.088;2023-03-01T07:07:21;1.80;77.50
32217;DHT22;67098;51.140;4.088;2023-03-01T07:09:48;1.90;77.60
32217;DHT22;67098;51.140;4.088;2023-03-01T07:12:13;2.00;77.90
32217;DHT22;67098;51.140;4.088;2023-03-01T07:14:39;2.10;77.60
32217;DHT22;67098;51.140;4.088;2023-03-01T07:17:05;2.20;77.70
32217;DHT22;67098;51.140;4.088;2023-03-01T07:19:30;2.30;78.10
32217;DHT22;67098;51.140;4.088;2023-03-01T07:21:56;2.40;78.20
32217;DHT22;67098;51.140;4.088;2023-03-01T07:24:22;2.50;78.30
32217;DHT22;67098;51.140;4.088;2023-03-01T07:26:49;2.70;78.30
32217;DHT22;67098;51.140;4.088;2023-03-01T07:29:15;2.80;79.10
32217;DHT22;67098;51.140;4.088;2023-03-01T07:31:41;3.00;79.20
32217;DHT22;67098;51.140;4.088;2023-03-01T07:34:07;3.20;78.60
32217;DHT22;67098;51.140;4.088;2023-03-01T07:36:32;3.40;78.70
32217;DHT22;67098;51.140;4.088;2023-03-01T07:38:58;3.50;78.20
32217;DHT22;67098;51.140;4.088;2023-03-01T07:41:24;3.60;77.80
32217;DHT22;67098;51.140;4.088;2023-03-01T07:43:50;3.80;77.50
32217;DHT22;67098;51.140;4.088;2023-03-01T07:46:15;4.00;76.00
32217;DHT22;67098;51.140;4.088;2023-03-01T07:48:41;4.10;76.50
32217;DHT22;67098;51.140;4.088;2023-03-01T07:51:07;4.30;76.60
32217;DHT22;67098;51.140;4.088;2023-03-01T07:53:33;4.40;76.30
32217;DHT22;67098;51.140;4.088;2023-03-01T07:56:08;4.50;76.10
32217;DHT22;67098;51.140;4.088;2023-03-01T07:58:34;4.70;75.70
32217;DHT22;67098;51.140;4.088;2023-03-01T08:01:02;4.70;75.40
32217;DHT22;67098;51.140;4.088;2023-03-01T08:03:28;4.80;75.70
32217;DHT22;67098;51.140;4.088;2023-03-01T08:05:54;4.90;75.20
32217;DHT22;67098;51.140;4.088;2023-03-01T08:08:19;5.00;75.10
32217;DHT22;67098;51.140;4.088;2023-03-01T08:10:45;5.20;74.60
32217;DHT22;67098;51.140;4.088;2023-03-01T08:13:11;5.20;74.00
32217;DHT22;67098;51.140;4.088;2023-03-01T08:15:36;5.40;75.10
32217;DHT22;67098;51.140;4.088;2023-03-01T08:18:02;5.50;74.00
32217;DHT22;67098;51.140;4.088;2023-03-01T08:20:28;5.60;73.30
32217;DHT22;67098;51.140;4.088;2023-03-01T08:22:53;5.70;73.40
32217;DHT22;67098;51.140;4.088;2023-03-01T08:25:19;5.80;72.30
32217;DHT22;67098;51.140;4.088;2023-03-01T08:27:44;5.90;72.40
32217;DHT22;67098;51.140;4.088;2023-03-01T08:30:10;6.00;72.00
32217;DHT22;67098;51.140;4.088;2023-03-01T08:32:38;6.10;71.60
32217;DHT22;67098;51.140;4.088;2023-03-01T08:35:04;6.20;71.80
32217;DHT22;67098;51.140;4.088;2023-03-01T08:37:29;6.20;71.10
32217;DHT22;67098;51.140;4.088;2023-03-01T08:39:59;6.20;70.50
32217;DHT22;67098;51.140;4.088;2023-03-01T08:42:26;6.30;69.70
32217;DHT22;67098;51.140;4.088;2023-03-01T08:44:51;6.50;68.60
32217;DHT22;67098;51.140;4.088;2023-03-01T08:47:18;6.40;67.60
32217;DHT22;67098;51.140;4.088;2023-03-01T08:49:44;6.20;67.10
32217;DHT22;67098;51.140;4.088;2023-03-01T08:52:09;6.30;67.60
32217;DHT22;67098;51.140;4.088;2023-03-01T08:54:35;6.30;66.20
32217;DHT22;67098;51.140;4.088;2023-03-01T08:57:03;6.10;66.50
32217;DHT22;67098;51.140;4.088;2023-03-01T08:59:29;6.00;67.00
32217;DHT22;67098;51.140;4.088;2023-03-01T09:01:55;5.90;67.50
32217;DHT22;67098;51.140;4.088;2023-03-01T09:04:21;5.90;67.70
32217;DHT22;67098;51.140;4.088;2023-03-01T09:06:47;5.80;67.70
32217;DHT22;67098;51.140;4.088;2023-03-01T09:09:17;5.80;67.40
32217;DHT22;67098;51.140;4.088;2023-03-01T09:11:44;5.60;67.60
32217;DHT22;67098;51.140;4.088;2023-03-01T09:14:12;5.40;67.70
32217;DHT22;67098;51.140;4.088;2023-03-01T09:16:37;5.30;67.80
32217;DHT22;67098;51.140;4.088;2023-03-01T09:19:04;5.40;67.70
32217;DHT22;67098;51.140;4.088;2023-03-01T09:21:29;5.40;67.50
32217;DHT22;67098;51.140;4.088;2023-03-01T09:23:56;5.50;67.50
32217;DHT22;67098;51.140;4.088;2023-03-01T09:26:23;5.50;67.70
32217;DHT22;67098;51.140;4.088;2023-03-01T09:28:50;5.50;67.50
32217;DHT22;67098;51.140;4.088;2023-03-01T09:31:18;5.50;68.30
32217;DHT22;67098;51.140;4.088;2023-03-01T09:33:48;5.50;67.10
32217;DHT22;67098;51.140;4.088;2023-03-01T09:36:17;5.50;67.10
32217;DHT22;67098;51.140;4.088;2023-03-01T09:38:44;5.60;66.80
32217;DHT22;67098;51.140;4.088;2023-03-01T09:44:36;5.50;66.30
32217;DHT22;67098;51.140;4.088;2023-03-01T09:47:03;5.60;66.50
32217;DHT22;67098;51.140;4.088;2023-03-01T09:49:37;5.80;65.50
32217;DHT22;67098;51.140;4.088;2023-03-01T09:55:17;6.00;64.80
32217;DHT22;67098;51.140;4.088;2023-03-01T09:57:50;6.00;64.60
32217;DHT22;67098;51.140;4.088;2023-03-01T10:08:35;6.10;64.00
32217;DHT22;67098;51.140;4.088;2023-03-01T10:11:05;6.20;64.30
32217;DHT22;67098;51.140;4.088;2023-03-01T10:16:48;6.60;61.60
32217;DHT22;67098;51.140;4.088;2023-03-01T10:19:22;6.50;61.40
32217;DHT22;67098;51.140;4.088;2023-03-01T10:21:50;6.50;61.30
32217;DHT22;67098;51.140;4.088;2023-03-01T10:24:19;6.70;61.80
32217;DHT22;67098;51.140;4.088;2023-03-01T10:26:58;6.90;62.00
32217;DHT22;67098;51.140;4.088;2023-03-01T10:29:37;7.00;60.80
32217;DHT22;67098;51.140;4.088;2023-03-01T10:32:05;7.20;60.70
32217;DHT22;67098;51.140;4.088;2023-03-01T10:34:34;7.30;60.10
32217;DHT22;67098;51.140;4.088;2023-03-01T10:40:04;7.70;60.20
32217;DHT22;67098;51.140;4.088;2023-03-01T10:42:34;7.80;58.90
32217;DHT22;67098;51.140;4.088;2023-03-01T10:45:32;8.00;58.90
32217;DHT22;67098;51.140;4.088;2023-03-01T10:48:13;7.90;58.40
32217;DHT22;67098;51.140;4.088;2023-03-01T10:50:41;7.90;58.40
32217;DHT22;67098;51.140;4.088;2023-03-01T10:55:59;8.40;58.10
32217;DHT22;67098;51.140;4.088;2023-03-01T10:58:25;8.60;57.40
32217;DHT22;67098;51.140;4.088;2023-03-01T11:03:34;9.00;56.20
32217;DHT22;67098;51.140;4.088;2023-03-01T11:06:23;9.10;55.00
32217;DHT22;67098;51.140;4.088;2023-03-01T11:08:49;9.20;54.70
32217;DHT22;67098;51.140;4.088;2023-03-01T11:11:22;9.30;54.70
32217;DHT22;67098;51.140;4.088;2023-03-01T11:14:23;9.40;55.00
32217;DHT22;67098;51.140;4.088;2023-03-01T11:16:45;9.50;54.30
32217;DHT22;67098;51.140;4.088;2023-03-01T11:24:54;9.70;54.10
32217;DHT22;67098;51.140;4.088;2023-03-01T11:27:28;10.20;52.90
32217;DHT22;67098;51.140;4.088;2023-03-01T11:30:03;10.50;52.30
32217;DHT22;67098;51.140;4.088;2023-03-01T11:32:38;10.70;52.60
32217;DHT22;67098;51.140;4.088;2023-03-01T11:35:27;11.30;51.70
32217;DHT22;67098;51.140;4.088;2023-03-01T11:40:47;12.00;50.30
32217;DHT22;67098;51.140;4.088;2023-03-01T11:43:26;12.10;50.20
32217;DHT22;67098;51.140;4.088;2023-03-01T11:46:25;12.60;50.00
32217;DHT22;67098;51.140;4.088;2023-03-01T12:00:02;13.90;46.60
32217;DHT22;67098;51.140;4.088;2023-03-01T12:19:59;15.30;45.30
32217;DHT22;67098;51.140;4.088;2023-03-01T12:23:21;15.40;44.20
32217;DHT22;67098;51.140;4.088;2023-03-01T12:26:08;15.20;43.40
32217;DHT22;67098;51.140;4.088;2023-03-01T12:42:30;15.90;41.60
32217;DHT22;67098;51.140;4.088;2023-03-01T12:45:21;15.70;42.10
32217;DHT22;67098;51.140;4.088;2023-03-01T12:50:41;15.80;42.40
32217;DHT22;67098;51.140;4.088;2023-03-01T12:53:23;15.90;41.80
32217;DHT22;67098;51.140;4.088;2023-03-01T12:55:50;16.20;42.60
32217;DHT22;67098;51.140;4.088;2023-03-01T12:58:24;16.60;41.40
32217;DHT22;67098;51.140;4.088;2023-03-01T13:03:55;16.70;40.80
32217;DHT22;67098;51.140;4.088;2023-03-01T13:28:36;17.20;39.70
32217;DHT22;67098;51.140;4.088;2023-03-01T13:31:05;17.20;39.20
32217;DHT22;67098;51.140;4.088;2023-03-01T13:35:58;17.50;39.10
32217;DHT22;67098;51.140;4.088;2023-03-01T13:38:38;17.40;38.60
32217;DHT22;67098;51.140;4.088;2023-03-01T13:41:04;17.20;38.40
32217;DHT22;67098;51.140;4.088;2023-03-01T13:43:40;17.40;38.80
32217;DHT22;67098;51.140;4.088;2023-03-01T13:46:20;17.40;38.40
32217;DHT22;67098;51.140;4.088;2023-03-01T13:48:50;17.30;38.10
32217;DHT22;67098;51.140;4.088;2023-03-01T13:51:16;17.30;38.30
32217;DHT22;67098;51.140;4.088;2023-03-01T13:53:47;17.40;38.00
32217;DHT22;67098;51.140;4.088;2023-03-01T13:56:20;17.10;38.60
32217;DHT22;67098;51.140;4.088;2023-03-01T13:59:14;16.70;38.20
32217;DHT22;67098;51.140;4.088;2023-03-01T14:01:40;16.50;38.70
32217;DHT22;67098;51.140;4.088;2023-03-01T14:04:35;16.70;39.10
32217;DHT22;67098;51.140;4.088;2023-03-01T14:09:45;16.90;38.40
32217;DHT22;67098;51.140;4.088;2023-03-01T14:20:26;16.70;38.80
32217;DHT22;67098;51.140;4.088;2023-03-01T14:22:54;16.90;39.30
32217;DHT22;67098;51.140;4.088;2023-03-01T14:25:32;17.10;38.90
32217;DHT22;67098;51.140;4.088;2023-03-01T14:28:21;17.10;38.70
32217;DHT22;67098;51.140;4.088;2023-03-01T14:30:53;17.20;38.60
32217;DHT22;67098;51.140;4.088;2023-03-01T14:33:28;17.40;38.40
32217;DHT22;67098;51.140;4.088;2023-03-01T14:38:39;17.00;38.50
32217;DHT22;67098;51.140;4.088;2023-03-01T14:41:17;17.00;38.60
32217;DHT22;67098;51.140;4.088;2023-03-01T14:43:46;16.80;38.70
32217;DHT22;67098;51.140;4.088;2023-03-01T14:46:39;16.90;39.10
32217;DHT22;67098;51.140;4.088;2023-03-01T14:49:27;17.10;38.90
32217;DHT22;67098;51.140;4.088;2023-03-01T14:52:06;16.70;39.10
32217;DHT22;67098;51.140;4.088;2023-03-01T14:54:37;16.40;39.70
32217;DHT22;67098;51.140;4.088;2023-03-01T14:57:05;16.40;40.10
32217;DHT22;67098;51.140;4.088;2023-03-01T14:59:33;16.30;40.00
32217;DHT22;67098;51.140;4.088;2023-03-01T15:01:59;16.50;40.00
32217;DHT22;67098;51.140;4.088;2023-03-01T15:04:27;16.70;39.80
32217;DHT22;67098;51.140;4.088;2023-03-01T15:06:54;16.60;39.70
32217;DHT22;67098;51.140;4.088;2023-03-01T15:09:21;16.40;39.90
32217;DHT22;67098;51.140;4.088;2023-03-01T15:11:48;16.30;39.80
32217;DHT22;67098;51.140;4.088;2023-03-01T15:14:42;16.40;40.10
32217;DHT22;67098;51.140;4.088;2023-03-01T15:19:46;16.40;40.00
32217;DHT22;67098;51.140;4.088;2023-03-01T15:22:15;15.90;40.10
32217;DHT22;67098;51.140;4.088;2023-03-01T15:24:41;15.60;40.50
32217;DHT22;67098;51.140;4.088;2023-03-01T15:27:29;15.20;41.50
32217;DHT22;67098;51.140;4.088;2023-03-01T15:29:58;15.00;41.90
32217;DHT22;67098;51.140;4.088;2023-03-01T15:32:36;15.00;41.70
32217;DHT22;67098;51.140;4.088;2023-03-01T15:35:42;14.20;42.60
32217;DHT22;67098;51.140;4.088;2023-03-01T15:38:28;14.00;43.40
32217;DHT22;67098;51.140;4.088;2023-03-01T15:40:56;14.10;43.50
32217;DHT22;67098;51.140;4.088;2023-03-01T15:43:46;14.10;43.50
32217;DHT22;67098;51.140;4.088;2023-03-01T15:46:33;14.30;43.30
32217;DHT22;67098;51.140;4.088;2023-03-01T15:49:05;14.40;43.40
32217;DHT22;67098;51.140;4.088;2023-03-01T15:51:33;14.30;43.50
32217;DHT22;67098;51.140;4.088;2023-03-01T15:54:03;14.10;43.60
32217;DHT22;67098;51.140;4.088;2023-03-01T15:56:30;14.00;43.70
32217;DHT22;67098;51.140;4.088;2023-03-01T15:58:59;13.70;44.00
32217;DHT22;67098;51.140;4.088;2023-03-01T16:01:26;13.60;44.70
32217;DHT22;67098;51.140;4.088;2023-03-01T16:03:52;13.40;44.70
32217;DHT22;67098;51.140;4.088;2023-03-01T16:06:19;13.00;45.50
32217;DHT22;67098;51.140;4.088;2023-03-01T16:08:44;12.80;45.80
32217;DHT22;67098;51.140;4.088;2023-03-01T16:11:16;12.70;45.80
32217;DHT22;67098;51.140;4.088;2023-03-01T16:13:43;12.50;45.90
32217;DHT22;67098;51.140;4.088;2023-03-01T16:16:11;12.10;46.50
32217;DHT22;67098;51.140;4.088;2023-03-01T16:18:40;12.20;46.60
32217;DHT22;67098;51.140;4.088;2023-03-01T16:21:06;12.00;46.30
32217;DHT22;67098;51.140;4.088;2023-03-01T16:23:31;11.70;46.90
32217;DHT22;67098;51.140;4.088;2023-03-01T16:26:01;11.50;47.30
32217;DHT22;67098;51.140;4.088;2023-03-01T16:28:26;11.50;47.70
32217;DHT22;67098;51.140;4.088;2023-03-01T16:30:52;11.40;47.90
32217;DHT22;67098;51.140;4.088;2023-03-01T16:33:18;11.20;48.30
32217;DHT22;67098;51.140;4.088;2023-03-01T16:35:43;11.00;48.70
32217;DHT22;67098;51.140;4.088;2023-03-01T16:38:10;11.00;49.00
32217;DHT22;67098;51.140;4.088;2023-03-01T16:40:36;10.90;49.20
32217;DHT22;67098;51.140;4.088;2023-03-01T16:43:01;10.90;49.20
32217;DHT22;67098;51.140;4.088;2023-03-01T16:45:32;10.80;49.70
32217;DHT22;67098;51.140;4.088;2023-03-01T16:47:58;10.70;50.00
32217;DHT22;67098;51.140;4.088;2023-03-01T16:50:24;10.50;50.50
32217;DHT22;67098;51.140;4.088;2023-03-01T16:52:50;10.40;50.50
32217;DHT22;67098;51.140;4.088;2023-03-01T16:55:16;10.30;50.90
32217;DHT22;67098;51.140;4.088;2023-03-01T16:57:41;10.20;51.20
32217;DHT22;67098;51.140;4.088;2023-03-01T17:00:09;10.10;51.60
32217;DHT22;67098;51.140;4.088;2023-03-01T17:02:35;10.00;52.00
32217;DHT22;67098;51.140;4.088;2023-03-01T17:05:02;9.90;52.30
32217;DHT22;67098;51.140;4.088;2023-03-01T17:07:28;9.80;52.70
32217;DHT22;67098;51.140;4.088;2023-03-01T17:09:54;9.80;52.90
32217;DHT22;67098;51.140;4.088;2023-03-01T17:12:20;9.70;53.10
32217;DHT22;67098;51.140;4.088;2023-03-01T17:14:45;9.60;53.50
32217;DHT22;67098;51.140;4.088;2023-03-01T17:17:11;9.50;53.70
32217;DHT22;67098;51.140;4.088;2023-03-01T17:19:37;9.50;53.80
32217;DHT22;67098;51.140;4.088;2023-03-01T17:22:11;9.30;53.90
32217;DHT22;67098;51.140;4.088;2023-03-01T17:24:43;9.20;53.90
32217;DHT22;67098;51.140;4.088;2023-03-01T17:27:09;9.20;54.00
32217;DHT22;67098;51.140;4.088;2023-03-01T17:29:36;9.00;54.00
32217;DHT22;67098;51.140;4.088;2023-03-01T17:32:03;9.00;54.20
32217;DHT22;67098;51.140;4.088;2023-03-01T17:34:31;8.90;54.30
32217;DHT22;67098;51.140;4.088;2023-03-01T17:36:56;9.00;54.20
32217;DHT22;67098;51.140;4.088;2023-03-01T17:39:22;8.80;54.20
32217;DHT22;67098;51.140;4.088;2023-03-01T17:41:53;8.80;54.50
32217;DHT22;67098;51.140;4.088;2023-03-01T17:44:19;8.80;54.30
32217;DHT22;67098;51.140;4.088;2023-03-01T17:46:45;8.80;54.40
32217;DHT22;67098;51.140;4.088;2023-03-01T17:49:11;8.80;54.80
32217;DHT22;67098;51.140;4.088;2023-03-01T17:51:36;8.70;54.80
32217;DHT22;67098;51.140;4.088;2023-03-01T17:54:03;8.60;54.60
32217;DHT22;67098;51.140;4.088;2023-03-01T17:56:30;8.60;54.80
32217;DHT22;67098;51.140;4.088;2023-03-01T17:58:58;8.50;55.50
32217;DHT22;67098;51.140;4.088;2023-03-01T18:01:24;8.50;55.10
32217;DHT22;67098;51.140;4.088;2023-03-01T18:03:50;8.40;55.10
32217;DHT22;67098;51.140;4.088;2023-03-01T18:06:22;8.30;55.10
32217;DHT22;67098;51.140;4.088;2023-03-01T18:08:48;8.30;55.30
32217;DHT22;67098;51.140;4.088;2023-03-01T18:11:16;8.20;55.30